sensor_id;sensor_type;location;lat;lon;timestamp;temperature;humidity
27567;DHT22;15006;48.584;9.186;2023-08-08T00:01:41;7.90;93.30
27567;DHT22;15006;48.584;9.186;2023-08-08T00:04:10;7.90;93.50
27567;DHT22;15006;48.584;9.186;2023-08-08T00:06:37;7.90;93.60
27567;DHT22;15006;48.584;9.186;2023-08-08T00:09:03;8.00;93.60
27567;DHT22;15006;48.584;9.186;2023-08-08T00:11:30;8.00;93.50
27567;DHT22;15006;48.584;9.186;2023-08-08T00:13:57;8.00;93.80
27567;DHT22;15006;48.584;9.186;2023-08-08T00:16:23;8.00;93.50
27567;DHT22;15006;48.584;9.186;2023-08-08T00:18:49;8.00;93.30
27567;DHT22;15006;48.584;9.186;2023-08-08T00:21:17;8.00;93.30
27567;DHT22;15006;48.584;9.186;2023-08-08T00:23:43;8.00;93.30
27567;DHT22;15006;48.584;9.186;2023-08-08T00:26:09;8.00;93.30
27567;DHT22;15006;48.584;9.186;2023-08-08T00:28:35;8.00;93.40
27567;DHT22;15006;48.584;9.186;2023-08-08T00:31:01;8.00;93.60
27567;DHT22;15006;48.584;9.186;2023-08-08T00:33:27;8.00;93.90
27567;DHT22;15006;48.584;9.186;2023-08-08T00:35:53;8.00;94.00
27567;DHT22;15006;48.584;9.186;2023-08-08T00:38:19;8.10;94.10
27567;DHT22;15006;48.584;9.186;2023-08-08T00:40:45;8.10;94.20
27567;DHT22;15006;48.584;9.186;2023-08-08T00:43:11;8.10;94.40
27567;DHT22;15006;48.584;9.186;2023-08-08T00:45:38;8.20;94.60
27567;DHT22;15006;48.584;9.186;2023-08-08T00:48:06;8.20;94.90
27567;DHT22;15006;48.584;9.186;2023-08-08T00:50:32;8.30;95.20
27567;DHT22;15006;48.584;9.186;2023-08-08T00:52:58;8.30;95.30
27567;DHT22;15006;48.584;9.186;2023-08-08T00:55:24;8.40;95.20
27567;DHT22;15006;48.584;9.186;2023-08-08T00:57:50;8.40;95.30
27567;DHT22;15006;48.584;9.186;2023-08-08T01:00:16;8.50;95.40
27567;DHT22;15006;48.584;9.186;2023-08-08T01:02:42;8.50;95.30
27567;DHT22;15006;48.584;9.186;2023-08-08T01:05:08;8.60;95.20
27567;DHT22;15006;48.584;9.186;2023-08-08T01:07:43;8.60;95.20
27567;DHT22;15006;48.584;9.186;2023-08-08T01:10:26;8.70;95.30
27567;DHT22;15006;48.584;9.186;2023-08-08T01:12:57;8.70;95.00
27567;DHT22;15006;48.584;9.186;2023-08-08T01:15:29;8.80;94.90
27567;DHT22;15006;48.584;9.186;2023-08-08T01:17:58;8.80;94.80
27567;DHT22;15006;48.584;9.186;2023-08-08T01:20:24;8.80;94.70
27567;DHT22;15006;48.584;9.186;2023-08-08T01:25:29;8.90;94.80
27567;DHT22;15006;48.584;9.186;2023-08-08T01:27:55;9.00;94.40
27567;DHT22;15006;48.584;9.186;2023-08-08T01:30:21;9.00;94.30
27567;DHT22;15006;48.584;9.186;2023-08-08T01:32:47;9.00;94.20
27567;DHT22;15006;48.584;9.186;2023-08-08T01:35:13;9.00;94.10
27567;DHT22;15006;48.584;9.186;2023-08-08T01:37:53;9.00;94.10
27567;DHT22;15006;48.584;9.186;2023-08-08T01:40:23;9.00;94.60
27567;DHT22;15006;48.584;9.186;2023-08-08T01:42:50;9.00;94.20
27567;DHT22;15006;48.584;9.186;2023-08-08T01:45:16;9.00;94.20
27567;DHT22;15006;48.584;9.186;2023-08-08T01:47:48;9.00;94.10
27567;DHT22;15006;48.584;9.186;2023-08-08T01:50:15;9.00;94.10
27567;DHT22;15006;48.584;9.186;2023-08-08T01:52:41;9.00;94.20
27567;DHT22;15006;48.584;9.186;2023-08-08T01:55:07;9.00;94.20
27567;DHT22;15006;48.584;9.186;2023-08-08T01:57:34;9.00;94.50
27567;DHT22;15006;48.584;9.186;2023-08-08T01:59:59;9.00;94.50
27567;DHT22;15006;48.584;9.186;2023-08-08T02:02:26;9.00;94.50
27567;DHT22;15006;48.584;9.186;2023-08-08T02:04:52;9.10;94.40
27567;DHT22;15006;48.584;9.186;2023-08-08T02:07:18;9.10;94.20
27567;DHT22;15006;48.584;9.186;2023-08-08T02:09:44;9.10;94.00
27567;DHT22;15006;48.584;9.186;2023-08-08T02:12:11;9.10;93.90
27567;DHT22;15006;48.584;9.186;2023-08-08T02:14:37;9.10;93.90
27567;DHT22;15006;48.584;9.186;2023-08-08T02:17:03;9.10;93.80
27567;DHT22;15006;48.584;9.186;2023-08-08T02:19:29;9.10;93.70
27567;DHT22;15006;48.584;9.186;2023-08-08T02:21:55;9.00;93.70
27567;DHT22;15006;48.584;9.186;2023-08-08T02:24:21;9.00;93.60
27567;DHT22;15006;48.584;9.186;2023-08-08T02:26:47;9.00;93.50
27567;DHT22;15006;48.584;9.186;2023-08-08T02:29:14;9.00;93.40
27567;DHT22;15006;48.584;9.186;2023-08-08T02:31:40;9.00;93.40
27567;DHT22;15006;48.584;9.186;2023-08-08T02:34:06;9.00;93.50
27567;DHT22;15006;48.584;9.186;2023-08-08T02:36:32;8.90;93.50
27567;DHT22;15006;48.584;9.186;2023-08-08T02:38:59;9.00;93.60
27567;DHT22;15006;48.584;9.186;2023-08-08T02:41:25;8.90;93.70
27567;DHT22;15006;48.584;9.186;2023-08-08T02:43:51;8.90;93.70
27567;DHT22;15006;48.584;9.186;2023-08-08T02:46:16;8.90;93.70
27567;DHT22;15006;48.584;9.186;2023-08-08T02:48:42;8.90;93.80
27567;DHT22;15006;48.584;9.186;2023-08-08T02:51:08;8.80;93.80
27567;DHT22;15006;48.584;9.186;2023-08-08T02:53:35;8.90;93.80
27567;DHT22;15006;48.584;9.186;2023-08-08T02:56:01;8.90;93.90
27567;DHT22;15006;48.584;9.186;2023-08-08T02:58:27;8.90;94.00
27567;DHT22;15006;48.584;9.186;2023-08-08T03:00:53;8.90;94.10
27567;DHT22;15006;48.584;9.186;2023-08-08T03:03:19;9.00;94.20
27567;DHT22;15006;48.584;9.186;2023-08-08T03:05:45;8.90;94.10
27567;DHT22;15006;48.584;9.186;2023-08-08T03:08:11;8.90;94.00
27567;DHT22;15006;48.584;9.186;2023-08-08T03:10:37;9.00;94.00
27567;DHT22;15006;48.584;9.186;2023-08-08T03:13:03;9.00;94.00
27567;DHT22;15006;48.584;9.186;2023-08-08T03:15:29;9.00;94.10
27567;DHT22;15006;48.584;9.186;2023-08-08T03:17:56;9.00;94.10
27567;DHT22;15006;48.584;9.186;2023-08-08T03:20:22;8.90;94.00
27567;DHT22;15006;48.584;9.186;2023-08-08T03:22:48;8.90;94.00
27567;DHT22;15006;48.584;9.186;2023-08-08T03:25:14;8.90;94.00
27567;DHT22;15006;48.584;9.186;2023-08-08T03:27:40;8.90;94.00
27567;DHT22;15006;48.584;9.186;2023-08-08T03:30:06;8.90;94.00
27567;DHT22;15006;48.584;9.186;2023-08-08T03:32:33;8.80;94.10
27567;DHT22;15006;48.584;9.186;2023-08-08T03:34:59;8.80;94.20
27567;DHT22;15006;48.584;9.186;2023-08-08T03:37:25;8.80;94.40
27567;DHT22;15006;48.584;9.186;2023-08-08T03:39:50;8.80;94.50
27567;DHT22;15006;48.584;9.186;2023-08-08T03:42:16;8.80;94.70
27567;DHT22;15006;48.584;9.186;2023-08-08T03:44:42;8.80;94.90
27567;DHT22;15006;48.584;9.186;2023-08-08T03:47:10;8.90;95.20
27567;DHT22;15006;48.584;9.186;2023-08-08T03:49:36;8.90;95.30
27567;DHT22;15006;48.584;9.186;2023-08-08T03:52:02;8.90;95.40
27567;DHT22;15006;48.584;9.186;2023-08-08T03:54:30;9.00;95.50
27567;DHT22;15006;48.584;9.186;2023-08-08T03:56:56;9.00;95.60
27567;DHT22;15006;48.584;9.186;2023-08-08T03:59:22;9.00;95.60
27567;DHT22;15006;48.584;9.186;2023-08-08T04:01:48;9.00;95.70
27567;DHT22;15006;48.584;9.186;2023-08-08T04:04:14;9.10;95.80
27567;DHT22;15006;48.584;9.186;2023-08-08T04:06:40;9.10;95.90
27567;DHT22;15006;48.584;9.186;2023-08-08T04:09:06;9.10;95.90
27567;DHT22;15006;48.584;9.186;2023-08-08T04:11:32;9.20;95.90
27567;DHT22;15006;48.584;9.186;2023-08-08T04:14:01;9.20;95.90
27567;DHT22;15006;48.584;9.186;2023-08-08T04:16:28;9.30;96.00
27567;DHT22;15006;48.584;9.186;2023-08-08T04:18:54;9.30;96.00
27567;DHT22;15006;48.584;9.186;2023-08-08T04:21:20;9.30;95.90
27567;DHT22;15006;48.584;9.186;2023-08-08T04:23:46;9.30;95.80
27567;DHT22;15006;48.584;9.186;2023-08-08T04:26:12;9.40;95.70
27567;DHT22;15006;48.584;9.186;2023-08-08T04:28:38;9.40;95.40
27567;DHT22;15006;48.584;9.186;2023-08-08T04:31:04;9.40;95.10
27567;DHT22;15006;48.584;9.186;2023-08-08T04:33:30;9.40;95.00
27567;DHT22;15006;48.584;9.186;2023-08-08T04:35:55;9.40;95.00
27567;DHT22;15006;48.584;9.186;2023-08-08T04:38:21;9.50;94.80
27567;DHT22;15006;48.584;9.186;2023-08-08T04:40:47;9.50;94.70
27567;DHT22;15006;48.584;9.186;2023-08-08T04:43:13;9.50;94.40
27567;DHT22;15006;48.584;9.186;2023-08-08T04:45:39;9.60;94.30
27567;DHT22;15006;48.584;9.186;2023-08-08T04:48:05;9.50;94.10
27567;DHT22;15006;48.584;9.186;2023-08-08T04:50:31;9.50;94.00
27567;DHT22;15006;48.584;9.186;2023-08-08T04:52:58;9.50;93.80
27567;DHT22;15006;48.584;9.186;2023-08-08T04:55:24;9.50;93.80
27567;DHT22;15006;48.584;9.186;2023-08-08T04:57:50;9.50;93.80
27567;DHT22;15006;48.584;9.186;2023-08-08T05:00:17;9.50;93.90
27567;DHT22;15006;48.584;9.186;2023-08-08T05:02:43;9.50;94.00
27567;DHT22;15006;48.584;9.186;2023-08-08T05:05:09;9.50;94.10
27567;DHT22;15006;48.584;9.186;2023-08-08T05:07:35;9.50;94.10
27567;DHT22;15006;48.584;9.186;2023-08-08T05:10:04;9.50;94.10
27567;DHT22;15006;48.584;9.186;2023-08-08T05:12:31;9.50;94.20
27567;DHT22;15006;48.584;9.186;2023-08-08T05:14:57;9.50;94.30
27567;DHT22;15006;48.584;9.186;2023-08-08T05:17:22;9.50;94.40
27567;DHT22;15006;48.584;9.186;2023-08-08T05:19:48;9.50;94.40
27567;DHT22;15006;48.584;9.186;2023-08-08T05:22:14;9.50;94.50
27567;DHT22;15006;48.584;9.186;2023-08-08T05:24:41;9.50;94.60
27567;DHT22;15006;48.584;9.186;2023-08-08T05:27:07;9.50;94.90
27567;DHT22;15006;48.584;9.186;2023-08-08T05:29:33;9.50;94.60
27567;DHT22;15006;48.584;9.186;2023-08-08T05:31:59;9.60;94.70
27567;DHT22;15006;48.584;9.186;2023-08-08T05:34:26;9.60;94.80
27567;DHT22;15006;48.584;9.186;2023-08-08T05:36:52;9.70;94.90
27567;DHT22;15006;48.584;9.186;2023-08-08T05:39:18;9.70;94.90
27567;DHT22;15006;48.584;9.186;2023-08-08T05:41:45;9.90;95.30
27567;DHT22;15006;48.584;9.186;2023-08-08T05:44:11;10.00;94.90
27567;DHT22;15006;48.584;9.186;2023-08-08T05:46:37;10.00;94.70
27567;DHT22;15006;48.584;9.186;2023-08-08T05:49:03;10.10;94.70
27567;DHT22;15006;48.584;9.186;2023-08-08T05:51:29;10.20;94.60
27567;DHT22;15006;48.584;9.186;2023-08-08T05:53:55;10.40;94.70
27567;DHT22;15006;48.584;9.186;2023-08-08T05:56:21;10.40;93.90
27567;DHT22;15006;48.584;9.186;2023-08-08T05:58:47;10.60;93.50
27567;DHT22;15006;48.584;9.186;2023-08-08T06:01:13;10.70;93.10
27567;DHT22;15006;48.584;9.186;2023-08-08T06:03:39;10.70;92.60
27567;DHT22;15006;48.584;9.186;2023-08-08T06:06:05;10.70;92.10
27567;DHT22;15006;48.584;9.186;2023-08-08T06:08:32;10.80;91.70
27567;DHT22;15006;48.584;9.186;2023-08-08T06:10:58;10.80;91.50
27567;DHT22;15006;48.584;9.186;2023-08-08T06:13:25;10.80;91.30
27567;DHT22;15006;48.584;9.186;2023-08-08T06:15:51;10.70;91.40
27567;DHT22;15006;48.584;9.186;2023-08-08T06:18:17;10.70;91.60
27567;DHT22;15006;48.584;9.186;2023-08-08T06:20:43;10.80;91.70
27567;DHT22;15006;48.584;9.186;2023-08-08T06:23:09;10.80;92.00
27567;DHT22;15006;48.584;9.186;2023-08-08T06:25:36;10.90;92.20
27567;DHT22;15006;48.584;9.186;2023-08-08T06:28:02;11.00;92.10
27567;DHT22;15006;48.584;9.186;2023-08-08T06:30:29;11.10;92.20
27567;DHT22;15006;48.584;9.186;2023-08-08T06:32:55;11.20;92.30
27567;DHT22;15006;48.584;9.186;2023-08-08T06:35:21;11.40;91.70
27567;DHT22;15006;48.584;9.186;2023-08-08T06:37:53;11.50;91.70
27567;DHT22;15006;48.584;9.186;2023-08-08T06:40:19;11.60;91.00
27567;DHT22;15006;48.584;9.186;2023-08-08T06:43:03;11.80;90.40
27567;DHT22;15006;48.584;9.186;2023-08-08T06:45:48;11.90;90.30
27567;DHT22;15006;48.584;9.186;2023-08-08T06:48:14;12.10;89.50
27567;DHT22;15006;48.584;9.186;2023-08-08T06:50:40;12.20;88.90
27567;DHT22;15006;48.584;9.186;2023-08-08T06:53:06;12.30;88.30
27567;DHT22;15006;48.584;9.186;2023-08-08T06:55:31;12.40;87.10
27567;DHT22;15006;48.584;9.186;2023-08-08T06:57:57;12.50;86.60
27567;DHT22;15006;48.584;9.186;2023-08-08T07:00:23;12.60;84.80
27567;DHT22;15006;48.584;9.186;2023-08-08T07:02:50;12.70;85.40
27567;DHT22;15006;48.584;9.186;2023-08-08T07:05:16;12.80;85.00
27567;DHT22;15006;48.584;9.186;2023-08-08T07:07:42;12.80;84.30
27567;DHT22;15006;48.584;9.186;2023-08-08T07:10:08;12.90;83.30
27567;DHT22;15006;48.584;9.186;2023-08-08T07:12:35;13.10;83.20
27567;DHT22;15006;48.584;9.186;2023-08-08T07:15:01;13.20;82.60
27567;DHT22;15006;48.584;9.186;2023-08-08T07:17:27;13.30;82.90
27567;DHT22;15006;48.584;9.186;2023-08-08T07:19:53;13.40;81.00
27567;DHT22;15006;48.584;9.186;2023-08-08T07:22:19;13.50;80.40
27567;DHT22;15006;48.584;9.186;2023-08-08T07:24:45;13.70;80.20
27567;DHT22;15006;48.584;9.186;2023-08-08T07:27:11;13.80;80.20
27567;DHT22;15006;48.584;9.186;2023-08-08T07:29:37;13.90;80.30
27567;DHT22;15006;48.584;9.186;2023-08-08T07:32:03;14.00;79.70
27567;DHT22;15006;48.584;9.186;2023-08-08T07:34:30;14.20;79.20
27567;DHT22;15006;48.584;9.186;2023-08-08T07:36:58;14.40;78.30
27567;DHT22;15006;48.584;9.186;2023-08-08T07:39:24;14.50;77.90
27567;DHT22;15006;48.584;9.186;2023-08-08T07:41:51;14.70;76.40
27567;DHT22;15006;48.584;9.186;2023-08-08T07:44:17;14.90;76.40
27567;DHT22;15006;48.584;9.186;2023-08-08T07:46:43;15.00;75.50
27567;DHT22;15006;48.584;9.186;2023-08-08T07:49:09;15.20;74.30
27567;DHT22;15006;48.584;9.186;2023-08-08T07:51:35;15.40;73.80
27567;DHT22;15006;48.584;9.186;2023-08-08T07:54:01;15.60;72.10
27567;DHT22;15006;48.584;9.186;2023-08-08T07:56:28;15.70;70.20
27567;DHT22;15006;48.584;9.186;2023-08-08T07:58:54;15.90;70.30
27567;DHT22;15006;48.584;9.186;2023-08-08T08:01:20;15.90;70.20
27567;DHT22;15006;48.584;9.186;2023-08-08T08:03:46;16.00;70.10
27567;DHT22;15006;48.584;9.186;2023-08-08T08:06:12;16.20;69.70
27567;DHT22;15006;48.584;9.186;2023-08-08T08:08:38;16.30;68.10
27567;DHT22;15006;48.584;9.186;2023-08-08T08:11:04;16.40;67.00
27567;DHT22;15006;48.584;9.186;2023-08-08T08:13:30;16.60;66.80
27567;DHT22;15006;48.584;9.186;2023-08-08T08:15:56;16.60;66.20
27567;DHT22;15006;48.584;9.186;2023-08-08T08:18:23;16.70;63.40
27567;DHT22;15006;48.584;9.186;2023-08-08T08:20:49;16.70;63.40
27567;DHT22;15006;48.584;9.186;2023-08-08T08:23:16;16.80;64.30
27567;DHT22;15006;48.584;9.186;2023-08-08T08:25:41;16.80;63.00
27567;DHT22;15006;48.584;9.186;2023-08-08T08:28:08;16.90;61.40
27567;DHT22;15006;48.584;9.186;2023-08-08T08:30:34;16.90;60.90
27567;DHT22;15006;48.584;9.186;2023-08-08T08:33:00;16.90;59.40
27567;DHT22;15006;48.584;9.186;2023-08-08T08:35:27;17.00;60.40
27567;DHT22;15006;48.584;9.186;2023-08-08T08:37:53;17.00;59.70
27567;DHT22;15006;48.584;9.186;2023-08-08T08:40:19;17.10;60.40
27567;DHT22;15006;48.584;9.186;2023-08-08T08:42:45;17.10;59.60
27567;DHT22;15006;48.584;9.186;2023-08-08T08:45:11;17.10;59.10
27567;DHT22;15006;48.584;9.186;2023-08-08T08:47:40;17.10;59.20
27567;DHT22;15006;48.584;9.186;2023-08-08T08:50:10;17.20;59.40
27567;DHT22;15006;48.584;9.186;2023-08-08T08:52:36;17.20;58.40
27567;DHT22;15006;48.584;9.186;2023-08-08T08:55:02;17.20;58.90
27567;DHT22;15006;48.584;9.186;2023-08-08T08:57:29;17.30;59.40
27567;DHT22;15006;48.584;9.186;2023-08-08T08:59:55;17.40;57.20
27567;DHT22;15006;48.584;9.186;2023-08-08T09:02:22;17.50;56.60
27567;DHT22;15006;48.584;9.186;2023-08-08T09:04:48;17.60;57.70
27567;DHT22;15006;48.584;9.186;2023-08-08T09:07:16;17.70;57.40
27567;DHT22;15006;48.584;9.186;2023-08-08T09:09:44;17.90;57.10
27567;DHT22;15006;48.584;9.186;2023-08-08T09:12:10;18.00;55.50
27567;DHT22;15006;48.584;9.186;2023-08-08T09:14:41;18.10;56.70
27567;DHT22;15006;48.584;9.186;2023-08-08T09:17:11;18.20;56.00
27567;DHT22;15006;48.584;9.186;2023-08-08T09:19:42;18.40;55.40
27567;DHT22;15006;48.584;9.186;2023-08-08T09:22:09;18.40;54.80
27567;DHT22;15006;48.584;9.186;2023-08-08T09:24:40;18.60;54.70
27567;DHT22;15006;48.584;9.186;2023-08-08T09:27:07;18.60;55.40
27567;DHT22;15006;48.584;9.186;2023-08-08T09:29:34;18.60;52.70
27567;DHT22;15006;48.584;9.186;2023-08-08T09:32:03;18.60;53.40
27567;DHT22;15006;48.584;9.186;2023-08-08T09:34:29;18.60;53.70
27567;DHT22;15006;48.584;9.186;2023-08-08T09:36:56;18.60;53.10
27567;DHT22;15006;48.584;9.186;2023-08-08T09:39:22;18.60;53.80
27567;DHT22;15006;48.584;9.186;2023-08-08T09:41:48;18.70;52.90
27567;DHT22;15006;48.584;9.186;2023-08-08T09:44:13;18.70;51.80
27567;DHT22;15006;48.584;9.186;2023-08-08T09:46:40;18.70;53.00
27567;DHT22;15006;48.584;9.186;2023-08-08T09:49:06;18.70;53.50
27567;DHT22;15006;48.584;9.186;2023-08-08T09:51:33;18.70;54.10
27567;DHT22;15006;48.584;9.186;2023-08-08T09:53:59;18.80;53.90
27567;DHT22;15006;48.584;9.186;2023-08-08T09:56:26;18.90;53.20
27567;DHT22;15006;48.584;9.186;2023-08-08T09:58:53;18.90;53.00
27567;DHT22;15006;48.584;9.186;2023-08-08T10:01:20;18.90;53.30
27567;DHT22;15006;48.584;9.186;2023-08-08T10:03:49;19.00;52.30
27567;DHT22;15006;48.584;9.186;2023-08-08T10:06:17;19.10;51.90
27567;DHT22;15006;48.584;9.186;2023-08-08T10:08:42;19.10;51.80
27567;DHT22;15006;48.584;9.186;2023-08-08T10:11:09;19.10;52.20
27567;DHT22;15006;48.584;9.186;2023-08-08T10:13:36;19.10;52.10
27567;DHT22;15006;48.584;9.186;2023-08-08T10:16:08;19.30;52.30
27567;DHT22;15006;48.584;9.186;2023-08-08T10:18:37;19.40;52.10
27567;DHT22;15006;48.584;9.186;2023-08-08T10:21:04;19.60;52.00
27567;DHT22;15006;48.584;9.186;2023-08-08T10:23:37;19.70;51.10
27567;DHT22;15006;48.584;9.186;2023-08-08T10:26:03;19.80;50.40
27567;DHT22;15006;48.584;9.186;2023-08-08T10:28:32;19.90;50.20
27567;DHT22;15006;48.584;9.186;2023-08-08T10:31:00;20.00;50.60
27567;DHT22;15006;48.584;9.186;2023-08-08T10:33:41;20.10;50.60
27567;DHT22;15006;48.584;9.186;2023-08-08T10:36:09;20.10;49.70
27567;DHT22;15006;48.584;9.186;2023-08-08T10:38:49;20.20;49.10
27567;DHT22;15006;48.584;9.186;2023-08-08T10:41:19;20.10;47.10
27567;DHT22;15006;48.584;9.186;2023-08-08T10:43:54;20.10;49.40
27567;DHT22;15006;48.584;9.186;2023-08-08T10:46:27;20.20;47.60
27567;DHT22;15006;48.584;9.186;2023-08-08T10:48:56;20.10;46.80
27567;DHT22;15006;48.584;9.186;2023-08-08T10:51:38;20.10;47.50
27567;DHT22;15006;48.584;9.186;2023-08-08T10:54:19;19.90;47.40
27567;DHT22;15006;48.584;9.186;2023-08-08T10:56:56;19.90;49.30
27567;DHT22;15006;48.584;9.186;2023-08-08T10:59:43;20.00;48.60
27567;DHT22;15006;48.584;9.186;2023-08-08T11:02:10;20.20;49.30
27567;DHT22;15006;48.584;9.186;2023-08-08T11:04:37;20.40;50.50
27567;DHT22;15006;48.584;9.186;2023-08-08T11:07:04;20.60;49.00
27567;DHT22;15006;48.584;9.186;2023-08-08T11:09:30;20.90;48.10
27567;DHT22;15006;48.584;9.186;2023-08-08T11:11:57;21.10;45.90
27567;DHT22;15006;48.584;9.186;2023-08-08T11:14:23;21.20;46.80
27567;DHT22;15006;48.584;9.186;2023-08-08T11:16:51;21.20;45.40
27567;DHT22;15006;48.584;9.186;2023-08-08T11:19:18;21.20;46.70
27567;DHT22;15006;48.584;9.186;2023-08-08T11:21:47;21.00;42.60
27567;DHT22;15006;48.584;9.186;2023-08-08T11:24:15;20.80;43.00
27567;DHT22;15006;48.584;9.186;2023-08-08T11:26:42;20.60;43.80
27567;DHT22;15006;48.584;9.186;2023-08-08T11:29:11;20.40;45.00
27567;DHT22;15006;48.584;9.186;2023-08-08T11:31:37;20.50;45.50
27567;DHT22;15006;48.584;9.186;2023-08-08T11:34:04;20.60;45.30
27567;DHT22;15006;48.584;9.186;2023-08-08T11:36:32;20.60;45.00
27567;DHT22;15006;48.584;9.186;2023-08-08T11:39:03;20.60;44.80
27567;DHT22;15006;48.584;9.186;2023-08-08T11:41:34;20.60;45.10
27567;DHT22;15006;48.584;9.186;2023-08-08T11:44:05;20.60;44.90
27567;DHT22;15006;48.584;9.186;2023-08-08T11:46:34;20.50;43.40
27567;DHT22;15006;48.584;9.186;2023-08-08T11:49:04;20.40;44.80
27567;DHT22;15006;48.584;9.186;2023-08-08T11:51:33;20.30;45.10
27567;DHT22;15006;48.584;9.186;2023-08-08T11:54:03;20.30;43.60
27567;DHT22;15006;48.584;9.186;2023-08-08T11:56:33;20.30;44.40
27567;DHT22;15006;48.584;9.186;2023-08-08T11:59:00;20.30;43.70
27567;DHT22;15006;48.584;9.186;2023-08-08T12:01:28;20.40;44.70
27567;DHT22;15006;48.584;9.186;2023-08-08T12:03:54;20.50;46.20
27567;DHT22;15006;48.584;9.186;2023-08-08T12:06:21;20.80;45.10
27567;DHT22;15006;48.584;9.186;2023-08-08T12:08:48;21.10;46.00
27567;DHT22;15006;48.584;9.186;2023-08-08T12:11:15;21.30;44.70
27567;DHT22;15006;48.584;9.186;2023-08-08T12:13:42;21.50;44.80
27567;DHT22;15006;48.584;9.186;2023-08-08T12:16:10;21.70;44.90
27567;DHT22;15006;48.584;9.186;2023-08-08T12:18:38;21.90;43.00
27567;DHT22;15006;48.584;9.186;2023-08-08T12:21:05;22.10;42.60
27567;DHT22;15006;48.584;9.186;2023-08-08T12:23:32;22.30;42.20
27567;DHT22;15006;48.584;9.186;2023-08-08T12:25:58;22.50;40.80
27567;DHT22;15006;48.584;9.186;2023-08-08T12:28:25;22.60;41.20
27567;DHT22;15006;48.584;9.186;2023-08-08T12:30:52;22.60;40.90
27567;DHT22;15006;48.584;9.186;2023-08-08T12:33:18;22.60;40.50
27567;DHT22;15006;48.584;9.186;2023-08-08T12:35:44;22.60;39.90
27567;DHT22;15006;48.584;9.186;2023-08-08T12:38:10;22.50;38.70
27567;DHT22;15006;48.584;9.186;2023-08-08T12:40:36;22.50;39.20
27567;DHT22;15006;48.584;9.186;2023-08-08T12:43:02;22.60;40.80
27567;DHT22;15006;48.584;9.186;2023-08-08T12:45:28;22.70;40.60
27567;DHT22;15006;48.584;9.186;2023-08-08T12:47:54;22.80;41.40
27567;DHT22;15006;48.584;9.186;2023-08-08T12:50:20;22.90;40.70
27567;DHT22;15006;48.584;9.186;2023-08-08T12:52:46;23.00;39.10
27567;DHT22;15006;48.584;9.186;2023-08-08T12:55:12;23.00;39.00
27567;DHT22;15006;48.584;9.186;2023-08-08T12:57:41;23.00;38.70
27567;DHT22;15006;48.584;9.186;2023-08-08T13:00:08;22.90;39.50
27567;DHT22;15006;48.584;9.186;2023-08-08T13:02:35;22.90;40.10
27567;DHT22;15006;48.584;9.186;2023-08-08T13:05:01;22.90;39.20
27567;DHT22;15006;48.584;9.186;2023-08-08T13:07:29;22.90;39.70
27567;DHT22;15006;48.584;9.186;2023-08-08T13:09:55;22.90;38.70
27567;DHT22;15006;48.584;9.186;2023-08-08T13:12:22;22.90;40.40
27567;DHT22;15006;48.584;9.186;2023-08-08T13:14:48;23.00;39.70
27567;DHT22;15006;48.584;9.186;2023-08-08T13:17:14;23.00;38.30
27567;DHT22;15006;48.584;9.186;2023-08-08T13:19:40;23.10;39.80
27567;DHT22;15006;48.584;9.186;2023-08-08T13:22:06;23.00;38.60
27567;DHT22;15006;48.584;9.186;2023-08-08T13:24:32;22.80;37.30
27567;DHT22;15006;48.584;9.186;2023-08-08T13:26:58;22.50;37.80
27567;DHT22;15006;48.584;9.186;2023-08-08T13:29:24;22.20;38.90
27567;DHT22;15006;48.584;9.186;2023-08-08T13:31:50;21.80;39.00
27567;DHT22;15006;48.584;9.186;2023-08-08T13:34:16;21.40;40.50
27567;DHT22;15006;48.584;9.186;2023-08-08T13:36:42;21.20;41.60
27567;DHT22;15006;48.584;9.186;2023-08-08T13:39:08;21.10;41.80
27567;DHT22;15006;48.584;9.186;2023-08-08T13:41:37;21.10;42.70
27567;DHT22;15006;48.584;9.186;2023-08-08T13:44:03;21.10;42.70
27567;DHT22;15006;48.584;9.186;2023-08-08T13:46:29;21.10;42.60
27567;DHT22;15006;48.584;9.186;2023-08-08T13:48:55;21.10;43.40
27567;DHT22;15006;48.584;9.186;2023-08-08T13:51:21;21.00;42.70
27567;DHT22;15006;48.584;9.186;2023-08-08T13:53:48;20.90;42.50
27567;DHT22;15006;48.584;9.186;2023-08-08T13:56:15;20.80;43.10
27567;DHT22;15006;48.584;9.186;2023-08-08T13:58:41;20.70;42.80
27567;DHT22;15006;48.584;9.186;2023-08-08T14:01:07;20.50;43.00
27567;DHT22;15006;48.584;9.186;2023-08-08T14:03:33;20.40;43.50
27567;DHT22;15006;48.584;9.186;2023-08-08T14:06:00;20.30;44.30
27567;DHT22;15006;48.584;9.186;2023-08-08T14:08:29;20.20;43.20
27567;DHT22;15006;48.584;9.186;2023-08-08T14:10:56;20.10;44.50
27567;DHT22;15006;48.584;9.186;2023-08-08T14:13:22;20.00;43.80
27567;DHT22;15006;48.584;9.186;2023-08-08T14:15:50;19.80;44.40
27567;DHT22;15006;48.584;9.186;2023-08-08T14:18:19;19.70;44.60
27567;DHT22;15006;48.584;9.186;2023-08-08T14:20:45;19.70;44.60
27567;DHT22;15006;48.584;9.186;2023-08-08T14:23:11;19.50;45.40
27567;DHT22;15006;48.584;9.186;2023-08-08T14:25:37;19.40;44.50
27567;DHT22;15006;48.584;9.186;2023-08-08T14:28:04;19.20;44.90
27567;DHT22;15006;48.584;9.186;2023-08-08T14:30:30;19.10;45.10
27567;DHT22;15006;48.584;9.186;2023-08-08T14:32:56;18.90;45.30
27567;DHT22;15006;48.584;9.186;2023-08-08T14:35:23;18.80;45.90
27567;DHT22;15006;48.584;9.186;2023-08-08T14:37:49;18.70;46.00
27567;DHT22;15006;48.584;9.186;2023-08-08T14:40:15;18.60;46.30
27567;DHT22;15006;48.584;9.186;2023-08-08T14:42:41;18.40;46.60
27567;DHT22;15006;48.584;9.186;2023-08-08T14:45:09;18.40;47.60
27567;DHT22;15006;48.584;9.186;2023-08-08T14:47:36;18.30;48.10
27567;DHT22;15006;48.584;9.186;2023-08-08T14:50:03;18.30;48.60
27567;DHT22;15006;48.584;9.186;2023-08-08T14:52:30;18.40;49.00
27567;DHT22;15006;48.584;9.186;2023-08-08T14:54:56;18.40;49.10
27567;DHT22;15006;48.584;9.186;2023-08-08T14:57:22;18.50;49.30
27567;DHT22;15006;48.584;9.186;2023-08-08T14:59:51;18.60;50.00
27567;DHT22;15006;48.584;9.186;2023-08-08T15:02:17;18.70;49.50
27567;DHT22;15006;48.584;9.186;2023-08-08T15:04:44;18.90;49.90
27567;DHT22;15006;48.584;9.186;2023-08-08T15:07:11;18.90;49.00
27567;DHT22;15006;48.584;9.186;2023-08-08T15:09:38;19.10;48.60
27567;DHT22;15006;48.584;9.186;2023-08-08T15:12:04;19.10;49.00
27567;DHT22;15006;48.584;9.186;2023-08-08T15:14:30;19.10;48.30
27567;DHT22;15006;48.584;9.186;2023-08-08T15:16:56;19.20;48.70
27567;DHT22;15006;48.584;9.186;2023-08-08T15:19:23;19.10;48.90
27567;DHT22;15006;48.584;9.186;2023-08-08T15:21:49;19.10;48.00
27567;DHT22;15006;48.584;9.186;2023-08-08T15:24:16;19.10;48.60
27567;DHT22;15006;48.584;9.186;2023-08-08T15:26:42;19.00;48.70
27567;DHT22;15006;48.584;9.186;2023-08-08T15:29:08;18.90;48.20
27567;DHT22;15006;48.584;9.186;2023-08-08T15:31:34;18.90;48.50
27567;DHT22;15006;48.584;9.186;2023-08-08T15:34:00;18.70;48.00
27567;DHT22;15006;48.584;9.186;2023-08-08T15:36:27;18.60;48.30
27567;DHT22;15006;48.584;9.186;2023-08-08T15:38:53;18.50;49.00